Time;durP1;ratioP1;P1;durP2;ratioP2;P2;SDS_P1;SDS_P2;PMS_P1;PMS_P2;Temp;Humidity;BMP_temperature;BMP_pressure;BME280_temperature;BME280_humidity;BME280_pressure;Samples;Min_cycle;Max_cycle;Signal;HPM_P1;HPM_P2
2022/11/25 00:02:16;;;;;;;;;13.75;13.25;;;;;20.84;58.21;100228.69;5005389;28;45233;-57
2022/11/25 00:04:42;;;;;;;;;17.75;14.50;;;;;20.84;58.35;100230.47;5022446;28;63842;-58
2022/11/25 00:07:07;;;;;;;;;16.75;16.00;;;;;20.83;58.42;100224.31;5021551;28;57704;-56
2022/11/25 00:09:33;;;;;;;;;20.50;17.00;;;;;20.84;58.21;100226.03;5021422;28;60500;-58
2022/11/25 00:11:58;;;;;;;;;18.50;15.00;;;;;20.84;58.39;100218.06;5021876;28;45887;-58
2022/11/25 00:14:23;;;;;;;;;17.25;15.50;;;;;20.84;58.35;100220.72;5022618;28;55742;-57
2022/11/25 00:16:49;;;;;;;;;16.00;14.75;;;;;20.84;58.54;100225.16;5004371;28;70377;-58
2022/11/25 00:19:14;;;;;;;;;18.25;15.00;;;;;20.83;58.71;100224.31;5022593;28;54130;-58
2022/11/25 00:21:39;;;;;;;;;13.50;13.50;;;;;20.83;58.58;100229.59;5022491;28;60341;-58
2022/11/25 00:24:05;;;;;;;;;16.00;14.00;;;;;20.83;58.23;100234.91;5021085;28;64259;-58
2022/11/25 00:26:31;;;;;;;;;17.75;13.75;;;;;20.83;58.70;100237.56;5021443;28;47997;-58
2022/11/25 00:28:57;;;;;;;;;22.25;17.25;;;;;20.83;58.24;100234.91;5022989;28;45310;-57
2022/11/25 00:31:25;;;;;;;;;13.50;13.50;;;;;20.83;58.21;100237.56;5005264;28;45332;-57
2022/11/25 00:33:50;;;;;;;;;19.00;14.75;;;;;20.83;58.50;100244.66;5021761;28;45259;-58
2022/11/25 00:36:19;;;;;;;;;14.00;13.50;;;;;20.82;58.34;100238.50;5022704;28;45301;-57
2022/11/25 00:38:45;;;;;;;;;17.00;13.00;;;;;20.83;58.43;100236.69;5022731;28;45303;-57
2022/11/25 00:46:38;;;;;;;;;13.00;13.00;;;;;20.82;58.32;100254.41;5021786;28;45425;-57
2022/11/25 00:49:04;;;;;;;;;20.50;14.75;;;;;20.83;58.72;100249.97;5022156;28;48096;-57
2022/11/25 00:51:29;;;;;;;;;15.25;14.75;;;;;20.83;58.73;100252.63;5021434;28;45384;-56
2022/11/25 00:53:54;;;;;;;;;17.25;12.25;;;;;20.82;58.71;100254.41;5022658;28;45357;-57
2022/11/25 00:56:22;;;;;;;;;16.00;14.25;;;;;20.83;58.53;100260.56;5020634;28;67982;-57
2022/11/25 00:58:47;;;;;;;;;18.00;15.50;;;;;20.84;58.43;100262.28;5022385;28;45381;-57
2022/11/25 01:01:13;;;;;;;;;16.25;14.00;;;;;20.84;58.47;100262.28;5022620;28;45368;-58
2022/11/25 01:03:38;;;;;;;;;15.00;12.75;;;;;20.83;58.17;100261.44;5022128;28;45239;-57
2022/11/25 01:06:05;;;;;;;;;13.00;11.25;;;;;20.84;58.31;100262.28;5022497;28;46052;-57
2022/11/25 01:08:31;;;;;;;;;13.00;12.75;;;;;20.83;58.48;100279.13;5004607;28;45381;-58
2022/11/25 01:11:00;;;;;;;;;16.25;15.25;;;;;20.83;58.16;100271.19;5021272;28;45315;-58
2022/11/25 01:13:25;;;;;;;;;14.50;12.25;;;;;20.83;58.58;100284.44;5022163;28;45488;-58
2022/11/25 01:15:50;;;;;;;;;14.00;13.25;;;;;20.83;58.49;100279.13;5020141;28;74052;-58
2022/11/25 01:18:16;;;;;;;;;18.50;14.75;;;;;20.83;58.38;100277.34;5021168;28;64778;-59
2022/11/25 01:20:41;;;;;;;;;13.50;13.50;;;;;20.83;58.74;100281.78;5004421;28;45249;-58
2022/11/25 01:23:07;;;;;;;;;12.75;11.75;;;;;20.83;58.38;100287.09;5003626;28;61333;-58
2022/11/25 01:25:35;;;;;;;;;13.50;13.00;;;;;20.83;58.41;100297.72;5003124;28;73487;-56
2022/11/25 01:28:01;;;;;;;;;16.50;14.75;;;;;20.83;58.57;100297.72;5020659;28;45275;-57
2022/11/25 01:30:26;;;;;;;;;15.00;10.50;;;;;20.83;58.33;100295.91;5020137;28;63782;-57
2022/11/25 01:32:52;;;;;;;;;15.00;12.25;;;;;20.83;58.51;100295.06;5020989;28;67525;-58
2022/11/25 01:35:17;;;;;;;;;13.75;12.75;;;;;20.82;58.29;100304.81;5021721;28;45433;-56
2022/11/25 01:37:42;;;;;;;;;17.50;13.75;;;;;20.82;58.43;100309.25;5020979;28;65883;-57
2022/11/25 01:40:08;;;;;;;;;14.50;13.75;;;;;20.82;58.36;100317.19;5020312;28;54253;-57
2022/11/25 01:42:34;;;;;;;;;15.75;13.75;;;;;20.81;58.35;100321.66;4987261;28;45507;-58
2022/11/25 01:45:27;;;;;;;;;15.00;14.75;;;;;20.81;58.64;100332.25;5003514;28;54355;-58
2022/11/25 01:47:58;;;;;;;;;15.00;12.50;;;;;20.81;58.29;100328.75;5004128;28;45509;-58
2022/11/25 01:50:23;;;;;;;;;11.75;11.75;;;;;20.80;58.60;100330.53;5021536;28;45325;-58
2022/11/25 01:52:49;;;;;;;;;13.75;13.50;;;;;20.80;58.34;100332.31;5019610;28;68082;-58
2022/11/25 01:55:17;;;;;;;;;14.25;13.75;;;;;20.80;58.39;100330.53;5021281;28;45357;-57
2022/11/25 01:57:52;;;;;;;;;17.50;14.00;;;;;20.79;58.42;100330.59;5020297;28;46872;-58
2022/11/25 02:00:18;;;;;;;;;17.75;14.00;;;;;20.79;58.05;100341.22;5004740;28;45449;-58
2022/11/25 02:02:44;;;;;;;;;13.50;11.25;;;;;20.80;58.24;100340.28;5021404;28;45331;-57
2022/11/25 02:05:09;;;;;;;;;13.75;11.50;;;;;20.78;58.45;100340.34;5020116;28;45387;-58
2022/11/25 02:07:40;;;;;;;;;13.50;13.00;;;;;20.79;58.27;100343.84;5019702;28;50872;-57
2022/11/25 02:10:25;;;;;;;;;16.75;14.25;;;;;20.77;58.09;100341.28;5019359;28;45260;-57
2022/11/25 02:12:50;;;;;;;;;14.75;13.00;;;;;20.77;58.29;100346.56;5003867;28;45200;-57
2022/11/25 02:15:16;;;;;;;;;15.00;13.00;;;;;20.77;58.54;100346.56;5021257;28;46208;-58
2022/11/25 02:17:41;;;;;;;;;14.50;13.75;;;;;20.78;58.25;100347.44;5019151;28;68182;-57
2022/11/25 02:20:09;;;;;;;;;13.25;12.25;;;;;20.77;58.44;100354.53;4987224;28;45245;-57
2022/11/25 02:23:02;;;;;;;;;14.50;14.00;;;;;20.77;58.28;100343.91;5021098;28;45445;-57
2022/11/25 02:25:39;;;;;;;;;14.50;12.00;;;;;20.76;58.49;100355.47;5019679;28;47396;-57
2022/11/25 02:28:15;;;;;;;;;16.75;14.25;;;;;20.76;58.24;100354.56;5019838;28;45382;-57
2022/11/25 02:30:41;;;;;;;;;13.25;11.25;;;;;20.76;58.15;100365.16;5021213;28;45299;-57
2022/11/25 02:33:06;;;;;;;;;14.00;13.50;;;;;20.76;58.17;100363.41;5003667;28;45409;-58
2022/11/25 02:35:39;;;;;;;;;11.50;11.00;;;;;20.76;58.15;100373.13;5019778;28;73444;-58
2022/11/25 02:38:16;;;;;;;;;14.00;11.25;;;;;20.75;58.38;100380.22;5021033;28;45398;-56
2022/11/25 02:40:53;;;;;;;;;14.50;11.75;;;;;20.75;58.78;100384.66;4987509;28;45458;-57
2022/11/25 02:43:19;;;;;;;;;16.25;12.75;;;;;20.74;58.85;100381.16;5019761;28;45457;-57
2022/11/25 02:46:00;;;;;;;;;15.50;13.00;;;;;20.75;58.79;100389.97;5020584;28;45327;-56
2022/11/25 02:48:27;;;;;;;;;12.75;10.00;;;;;20.74;58.61;100386.47;5020760;28;45322;-56
2022/11/25 02:50:52;;;;;;;;;13.50;10.00;;;;;20.75;58.88;100388.19;5020975;28;45354;-56
2022/11/25 02:53:18;;;;;;;;;12.50;11.25;;;;;20.75;58.43;100395.28;5019795;28;69684;-57
2022/11/25 02:55:43;;;;;;;;;12.75;10.50;;;;;20.75;58.76;100395.28;5019495;28;56875;-56
2022/11/25 02:58:09;;;;;;;;;12.25;11.00;;;;;20.74;58.85;100397.06;5020754;28;45334;-57
2022/11/25 03:00:34;;;;;;;;;14.50;10.00;;;;;20.73;58.73;100403.28;5019294;28;45299;-57
2022/11/25 03:03:00;;;;;;;;;14.50;12.25;;;;;20.74;58.59;100405.03;5019350;28;45275;-58
2022/11/25 03:05:25;;;;;;;;;13.50;11.25;;;;;20.73;58.85;100408.59;5020479;28;45978;-57
2022/11/25 03:07:50;;;;;;;;;13.25;9.75;;;;;20.73;58.56;100402.44;5019181;28;45371;-57
2022/11/25 03:10:16;;;;;;;;;10.75;10.00;;;;;20.72;58.48;100406.88;5020047;28;49057;-58
2022/11/25 03:12:41;;;;;;;;;14.75;12.75;;;;;20.72;58.84;100414.81;5018389;28;68929;-57
2022/11/25 03:15:07;;;;;;;;;14.50;13.25;;;;;20.71;58.55;100417.53;5018098;28;70813;-57
2022/11/25 03:17:32;;;;;;;;;13.25;12.00;;;;;20.71;58.67;100421.06;5020181;28;47985;-57
2022/11/25 03:19:58;;;;;;;;;13.75;10.00;;;;;20.72;58.84;100429.88;5018017;28;62372;-58
2022/11/25 03:22:23;;;;;;;;;13.25;10.50;;;;;20.71;58.83;100428.16;5019387;28;72229;-57
2022/11/25 03:24:48;;;;;;;;;12.00;11.00;;;;;20.70;58.54;100435.25;5020580;28;45226;-58
2022/11/25 03:27:14;;;;;;;;;11.50;11.00;;;;;20.70;58.35;100434.38;5020052;28;45280;-57
2022/11/25 03:29:39;;;;;;;;;13.75;11.50;;;;;20.70;58.52;100439.69;5019347;28;66722;-57
2022/11/25 03:32:05;;;;;;;;;12.25;10.50;;;;;20.69;58.58;100438.81;5019542;28;66317;-58
2022/11/25 03:34:30;;;;;;;;;15.00;14.00;;;;;20.69;58.62;100448.56;5018659;28;46056;-56
2022/11/25 03:36:56;;;;;;;;;13.00;12.50;;;;;20.68;58.67;100442.41;5019095;28;73351;-57
2022/11/25 03:39:22;;;;;;;;;13.00;12.25;;;;;20.67;58.49;100445.09;5017901;28;65620;-57
2022/11/25 03:41:48;;;;;;;;;13.50;11.25;;;;;20.68;58.75;100463.63;5018871;28;45316;-55
2022/11/25 03:44:13;;;;;;;;;10.25;10.25;;;;;20.70;58.60;100463.56;5019732;28;47333;-57
2022/11/25 03:46:38;;;;;;;;;9.50;9.50;;;;;20.70;58.84;100468.84;5019681;28;53849;-57
2022/11/25 03:49:04;;;;;;;;;9.50;8.00;;;;;20.71;58.75;100473.25;5019866;28;45672;-58
2022/11/25 03:51:29;;;;;;;;;11.25;9.50;;;;;20.71;58.54;100473.25;5019448;28;58484;-57
2022/11/25 03:53:54;;;;;;;;;13.00;11.75;;;;;20.70;58.93;100475.03;5017833;28;58807;-54
2022/11/25 03:56:20;;;;;;;;;13.50;11.00;;;;;20.71;59.13;100478.53;5017601;28;63990;-55
2022/11/25 03:58:45;;;;;;;;;12.25;10.75;;;;;20.71;59.12;100482.06;5019220;28;60223;-57
2022/11/25 04:01:10;;;;;;;;;14.00;11.00;;;;;20.71;58.74;100487.34;5017941;28;63839;-57
2022/11/25 04:03:36;;;;;;;;;17.00;13.00;;;;;20.72;58.99;100488.22;5017905;28;57572;-56
2022/11/25 04:06:01;;;;;;;;;14.50;12.75;;;;;20.71;58.85;100489.16;5019316;28;60941;-54
2022/11/25 04:08:27;;;;;;;;;13.25;11.75;;;;;20.71;59.09;100484.72;5019487;28;46931;-54
2022/11/25 04:10:52;;;;;;;;;14.00;12.00;;;;;20.72;58.98;100490.88;5019112;28;59194;-55
2022/11/25 04:13:17;;;;;;;;;12.75;12.25;;;;;20.71;58.95;100487.34;5018623;28;68172;-56
2022/11/25 04:15:47;;;;;;;;;14.25;12.00;;;;;20.72;58.90;100490.88;5018735;28;68788;-56
2022/11/25 04:18:13;;;;;;;;;11.75;11.25;;;;;20.71;58.73;100494.44;5019580;28;45351;-56
2022/11/25 04:20:38;;;;;;;;;10.75;8.00;;;;;20.71;58.30;100499.75;5018260;28;48751;-55
2022/11/25 04:23:05;;;;;;;;;12.00;11.25;;;;;20.72;58.89;100501.47;5018173;28;46023;-53
2022/11/25 04:25:30;;;;;;;;;12.75;12.25;;;;;20.71;58.65;100503.28;5019354;28;45239;-56
2022/11/25 04:27:56;;;;;;;;;13.25;10.00;;;;;20.71;58.87;100505.94;5019628;28;45165;-55
2022/11/25 04:30:21;;;;;;;;;9.75;9.75;;;;;20.72;58.88;100512.97;5017349;28;69703;-55
2022/11/25 04:32:47;;;;;;;;;15.75;11.75;;;;;20.71;58.84;100511.22;5021370;28;45219;-57
2022/11/25 04:35:12;;;;;;;;;12.50;10.00;;;;;20.71;58.91;100523.63;5021874;28;67728;-55
2022/11/25 04:37:37;;;;;;;;;13.50;9.50;;;;;20.72;59.03;100525.34;5022739;28;49327;-56
2022/11/25 04:40:03;;;;;;;;;13.75;11.00;;;;;20.72;58.88;100528.00;5020690;28;71069;-56
2022/11/25 04:42:31;;;;;;;;;12.75;10.00;;;;;20.72;58.74;100533.31;5020937;28;47516;-57
2022/11/25 04:45:01;;;;;;;;;12.00;12.00;;;;;20.72;59.25;100535.97;5021651;28;45402;-56
2022/11/25 04:47:27;;;;;;;;;9.75;9.75;;;;;20.73;59.40;100540.34;5022693;28;45235;-56
2022/11/25 04:49:53;;;;;;;;;11.25;8.75;;;;;20.74;58.84;100544.72;5021290;28;45245;-57
2022/11/25 04:52:18;;;;;;;;;9.50;7.75;;;;;20.73;58.85;100546.50;5021613;28;69327;-57
2022/11/25 04:54:44;;;;;;;;;13.75;13.00;;;;;20.74;59.08;100560.63;5022140;28;58796;-56
2022/11/25 04:57:13;;;;;;;;;11.75;10.75;;;;;20.75;58.99;100555.28;5020800;28;45410;-56
2022/11/25 04:59:39;;;;;;;;;12.00;9.50;;;;;20.75;59.15;100563.22;5022547;28;45315;-56
2022/11/25 05:02:06;;;;;;;;;13.00;11.75;;;;;20.75;59.30;100560.56;5020971;28;47130;-56
2022/11/25 05:04:31;;;;;;;;;11.50;8.25;;;;;20.77;59.07;100555.25;4988270;28;45482;-56
2022/11/25 05:06:56;;;;;;;;;9.75;9.25;;;;;20.76;59.06;100567.63;5021448;28;65767;-57
2022/11/25 05:09:22;;;;;;;;;11.50;9.75;;;;;20.77;59.17;100557.91;5021436;28;65249;-54
2022/11/25 05:11:48;;;;;;;;;11.50;10.00;;;;;20.78;59.12;100575.53;5020097;28;64252;-55
2022/11/25 05:14:13;;;;;;;;;13.00;9.50;;;;;20.78;59.20;100579.06;5022291;28;45354;-55
2022/11/25 05:16:39;;;;;;;;;13.50;9.75;;;;;20.78;59.45;100575.53;5020786;28;48098;-57
2022/11/25 05:19:04;;;;;;;;;10.75;9.00;;;;;20.80;59.13;100590.47;5003697;28;63404;-56
2022/11/25 05:21:29;;;;;;;;;12.00;9.00;;;;;20.80;59.14;100598.44;5022189;28;46274;-55
2022/11/25 05:23:55;;;;;;;;;10.00;9.00;;;;;20.81;59.32;100602.81;5021473;28;59184;-56
2022/11/25 05:26:20;;;;;;;;;18.25;13.75;;;;;20.81;59.20;100600.16;5020584;28;45414;-56
2022/11/25 05:28:46;;;;;;;;;13.50;10.50;;;;;20.83;59.14;100616.00;5020566;28;52433;-56
2022/11/25 05:31:11;;;;;;;;;9.25;9.00;;;;;20.84;59.32;100612.44;5020104;28;65235;-54
2022/11/25 05:33:36;;;;;;;;;13.75;9.00;;;;;20.84;59.07;100612.44;5021933;28;45850;-56
2022/11/25 05:36:02;;;;;;;;;12.25;8.50;;;;;20.84;59.07;100620.38;5021914;28;45274;-56
2022/11/25 05:38:28;;;;;;;;;13.00;10.25;;;;;20.85;59.08;100614.19;5021856;28;45515;-56
2022/11/25 05:40:53;;;;;;;;;12.75;10.00;;;;;20.85;59.10;100619.50;5019517;28;68180;-55
2022/11/25 05:43:19;;;;;;;;;8.25;8.25;;;;;20.86;59.17;100626.53;5019545;28;66246;-55
2022/11/25 05:45:45;;;;;;;;;11.75;10.50;;;;;20.87;59.03;100628.25;5021695;28;45433;-55
2022/11/25 05:48:10;;;;;;;;;11.50;8.00;;;;;20.88;59.23;100630.00;5021576;28;45522;-56
2022/11/25 05:50:36;;;;;;;;;9.25;9.25;;;;;20.88;59.57;100630.84;5020240;28;46703;-55
2022/11/25 05:53:01;;;;;;;;;9.50;9.00;;;;;20.89;59.21;100629.94;5003809;28;46725;-55
2022/11/25 05:55:26;;;;;;;;;9.50;8.25;;;;;20.89;58.98;100634.38;5020295;28;45365;-55
2022/11/25 05:57:52;;;;;;;;;8.25;8.00;;;;;20.91;59.32;100634.31;5021602;28;45229;-56
2022/11/25 06:00:17;;;;;;;;;10.00;8.50;;;;;20.91;59.35;100634.31;5020686;28;63790;-56
2022/11/25 06:02:44;;;;;;;;;4.00;2.00;;;;;20.90;59.24;100646.72;5021516;28;45316;-57
2022/11/25 06:05:09;;;;;;;;;12.00;8.50;;;;;20.91;59.29;100642.28;4987120;28;45859;-56
2022/11/25 06:07:35;;;;;;;;;14.00;12.00;;;;;20.89;59.47;100642.34;5019903;28;54204;-56
2022/11/25 06:10:00;;;;;;;;;10.50;9.75;;;;;20.89;59.03;100651.16;5003638;28;46990;-57
2022/11/25 06:12:26;;;;;;;;;13.25;8.00;;;;;20.91;59.02;100658.19;5020659;28;60858;-57
2022/11/25 06:14:51;;;;;;;;;9.75;8.50;;;;;20.91;58.99;100656.41;5020004;28;45390;-57
2022/11/25 06:17:16;;;;;;;;;8.75;7.25;;;;;20.93;58.85;100659.84;5020488;28;60112;-57
2022/11/25 06:19:42;;;;;;;;;8.25;6.00;;;;;20.95;59.01;100667.78;5019794;28;73316;-58
2022/11/25 06:22:07;;;;;;;;;9.50;9.00;;;;;20.95;58.85;100662.50;5019098;28;61448;-55
2022/11/25 06:24:32;;;;;;;;;11.00;8.50;;;;;20.96;58.93;100659.78;5019094;28;61959;-56
2022/11/25 06:26:59;;;;;;;;;14.75;7.75;;;;;20.96;58.74;100669.53;5020524;28;53852;-56
2022/11/25 06:29:24;;;;;;;;;9.00;7.75;;;;;20.96;58.62;100673.03;5020947;28;46222;-55
2022/11/25 06:31:50;;;;;;;;;9.25;8.00;;;;;20.97;58.97;100681.88;5020175;28;70438;-57
2022/11/25 06:34:15;;;;;;;;;6.25;6.25;;;;;20.97;58.34;100688.03;5003110;28;45698;-57
2022/11/25 06:36:40;;;;;;;;;11.25;9.00;;;;;20.98;58.21;100688.91;5020320;28;60267;-56
2022/11/25 06:39:06;;;;;;;;;12.75;8.25;;;;;20.99;57.93;100693.28;5020515;28;55000;-56
2022/11/25 06:41:31;;;;;;;;;10.50;9.00;;;;;20.99;58.06;100698.59;5020629;28;47773;-56
2022/11/25 06:43:57;;;;;;;;;11.00;7.50;;;;;21.01;58.04;100707.34;5020752;28;45829;-56
2022/11/25 06:46:22;;;;;;;;;13.50;8.50;;;;;21.01;58.40;100704.69;5020156;28;63160;-50
2022/11/25 06:48:47;;;;;;;;;9.75;7.50;;;;;21.01;58.28;100710.00;5019288;28;49923;-54
2022/11/25 06:51:13;;;;;;;;;8.25;8.25;;;;;21.02;58.04;100706.44;5019243;28;45707;-51
2022/11/25 06:53:39;;;;;;;;;12.75;8.75;;;;;21.01;58.18;100710.00;5018122;28;45284;-50
2022/11/25 06:56:07;;;;;;;;;11.75;11.25;;;;;21.00;58.28;100709.16;5018053;28;71478;-54
2022/11/25 06:58:34;;;;;;;;;9.00;8.00;;;;;21.00;58.26;100713.59;5020378;28;45323;-51
2022/11/25 07:01:16;;;;;;;;;8.75;7.25;;;;;21.02;57.97;100704.66;5019637;28;45486;-51
2022/11/25 07:03:42;;;;;;;;;11.50;8.25;;;;;21.03;58.07;100710.84;5017409;28;45398;-52
2022/11/25 07:06:08;;;;;;;;;11.00;8.00;;;;;21.05;57.90;100709.00;5016617;28;45376;-55
2022/11/25 07:08:33;;;;;;;;;14.00;10.00;;;;;21.05;57.98;100712.53;5020213;28;45393;-49
2022/11/25 07:11:19;;;;;;;;;8.50;7.50;;;;;21.05;58.16;100715.19;5018997;28;45331;-54
2022/11/25 07:13:44;;;;;;;;;13.00;9.50;;;;;21.06;57.77;100718.69;4988589;28;45341;-53
2022/11/25 07:16:10;;;;;;;;;11.75;8.75;;;;;21.08;57.98;100722.16;5018901;28;45275;-53
2022/11/25 07:18:36;;;;;;;;;8.25;8.25;;;;;21.08;57.57;100719.50;5002855;28;47120;-52
2022/11/25 07:21:11;;;;;;;;;10.00;8.00;;;;;21.07;57.60;100726.59;5019119;28;45375;-54
2022/11/25 07:23:37;;;;;;;;;12.00;9.50;;;;;21.07;57.62;100723.06;5003580;28;45485;-51
2022/11/25 07:26:14;;;;;;;;;13.25;10.25;;;;;21.07;57.43;100737.22;5019563;28;56577;-52
2022/11/25 07:28:39;;;;;;;;;13.00;9.50;;;;;21.07;57.24;100741.66;5020071;28;45491;-53
2022/11/25 07:31:14;;;;;;;;;10.25;8.25;;;;;21.07;57.76;100744.31;5019067;28;73159;-50
2022/11/25 07:33:40;;;;;;;;;11.00;8.25;;;;;21.06;57.36;100753.19;5019058;28;46210;-51
2022/11/25 07:36:06;;;;;;;;;11.00;8.25;;;;;21.07;57.25;100753.13;5017724;28;48744;-54
2022/11/25 07:38:32;;;;;;;;;10.50;9.50;;;;;21.09;57.30;100755.72;5002064;28;46299;-54
2022/11/25 07:41:05;;;;;;;;;15.00;12.25;;;;;21.10;57.02;100755.66;5016245;28;45279;-53
2022/11/25 07:43:30;;;;;;;;;9.75;7.75;;;;;21.08;53.20;100767.28;5018438;28;45433;-53
2022/11/25 07:45:56;;;;;;;;;6.75;5.25;;;;;20.72;51.59;100770.22;5019756;28;45329;-53
2022/11/25 07:48:21;;;;;;;;;8.50;6.50;;;;;20.30;51.22;100775.91;5019647;28;46168;-54
2022/11/25 07:50:49;;;;;;;;;7.50;6.00;;;;;19.84;51.02;100779.03;5018381;28;47594;-49
2022/11/25 07:53:14;;;;;;;;;7.00;6.00;;;;;19.46;50.43;100780.94;5017994;28;45260;-48
2022/11/25 07:55:40;;;;;;;;;5.75;4.75;;;;;19.13;50.88;100787.97;5019383;28;45240;-51
2022/11/25 07:58:05;;;;;;;;;6.00;4.00;;;;;18.88;51.29;100789.47;5018473;28;47390;-51
2022/11/25 08:00:30;;;;;;;;;7.25;5.00;;;;;18.73;51.95;100793.34;5018161;28;45456;-49
2022/11/25 08:02:56;;;;;;;;;4.75;4.75;;;;;18.68;51.57;100802.28;5020003;28;45237;-51
2022/11/25 08:05:21;;;;;;;;;6.25;5.00;;;;;18.60;51.58;100813.03;5017409;28;67381;-50
2022/11/25 08:07:46;;;;;;;;;4.50;3.25;;;;;18.52;51.40;100821.13;5019840;28;50828;-51
2022/11/25 08:10:12;;;;;;;;;9.00;5.75;;;;;18.34;50.89;100826.81;4998093;28;62182;-54
2022/11/25 08:12:37;;;;;;;;;7.25;4.75;;;;;18.19;51.24;100840.34;5010316;28;45463;-53
2022/11/25 08:15:03;;;;;;;;;4.75;4.50;;;;;17.94;50.72;100848.75;4985856;28;45664;-48
2022/11/25 08:17:28;;;;;;;;;9.50;6.00;;;;;17.71;51.16;100862.38;5021541;28;46540;-50
2022/11/25 08:19:54;;;;;;;;;6.00;6.00;;;;;17.52;52.04;100867.06;5022543;28;45280;-49
2022/11/25 08:22:19;;;;;;;;;7.25;6.50;;;;;17.43;52.40;100867.22;5019045;28;46448;-52
2022/11/25 08:24:45;;;;;;;;;7.00;4.75;;;;;17.53;53.96;100874.09;5022695;28;45375;-50
2022/11/25 08:27:10;;;;;;;;;7.00;5.75;;;;;17.72;54.14;100868.50;4987952;28;64667;-49
2022/11/25 08:29:35;;;;;;;;;8.00;6.25;;;;;17.93;54.53;100867.25;5004965;28;45371;-53
2022/11/25 08:32:01;;;;;;;;;6.00;5.00;;;;;18.12;54.35;100867.78;5003752;28;56253;-51
2022/11/25 08:34:26;;;;;;;;;7.00;5.25;;;;;18.30;54.65;100868.25;5021774;28;45509;-55
2022/11/25 08:36:52;;;;;;;;;4.75;4.75;;;;;18.49;54.94;100867.88;5022428;28;45231;-56
2022/11/25 08:39:18;;;;;;;;;6.50;5.75;;;;;18.66;54.89;100863.13;5021105;28;49432;-56
2022/11/25 08:41:44;;;;;;;;;8.25;6.00;;;;;18.82;54.75;100876.88;5022591;28;45387;-56
2022/11/25 08:44:11;;;;;;;;;7.00;6.00;;;;;18.96;54.63;100871.28;5021665;28;63995;-56
2022/11/25 08:46:38;;;;;;;;;5.00;4.00;;;;;19.09;54.74;100878.88;5022133;28;46487;-56
2022/11/25 08:49:04;;;;;;;;;7.25;5.00;;;;;19.20;54.66;100878.66;5022376;28;45450;-56
2022/11/25 08:51:31;;;;;;;;;8.00;5.00;;;;;19.31;54.60;100875.75;5022356;28;47497;-57
2022/11/25 08:53:56;;;;;;;;;7.25;6.50;;;;;19.41;55.00;100893.13;5022033;28;45300;-56
2022/11/25 08:56:22;;;;;;;;;4.25;3.50;;;;;19.50;55.59;100898.19;5020887;28;45346;-56
2022/11/25 08:58:48;;;;;;;;;5.50;5.50;;;;;19.59;55.90;100902.41;5004535;28;45293;-56
2022/11/25 09:01:14;;;;;;;;;5.50;3.50;;;;;19.66;55.77;100904.88;5022338;28;45328;-56
2022/11/25 09:03:41;;;;;;;;;4.25;4.00;;;;;19.73;56.12;100903.81;5021704;28;45356;-56
2022/11/25 09:06:07;;;;;;;;;7.00;6.25;;;;;19.81;56.19;100915.97;5021166;28;46129;-54
2022/11/25 09:08:32;;;;;;;;;6.00;5.25;;;;;19.87;56.08;100916.69;5020079;28;45522;-56
2022/11/25 09:10:58;;;;;;;;;8.25;6.00;;;;;19.92;56.37;100921.88;5020635;28;51369;-55
2022/11/25 09:13:23;;;;;;;;;9.75;6.25;;;;;19.99;56.53;100928.75;5004237;28;46003;-53
2022/11/25 09:15:49;;;;;;;;;8.25;7.00;;;;;20.03;56.53;100938.34;5021132;28;45244;-53
2022/11/25 09:18:15;;;;;;;;;7.75;7.00;;;;;20.07;56.76;100929.41;5019912;28;51856;-56
2022/11/25 09:20:41;;;;;;;;;5.50;4.00;;;;;20.13;56.66;100929.22;5022170;28;45362;-52
2022/11/25 09:23:07;;;;;;;;;7.50;6.25;;;;;20.18;56.68;100940.59;5020007;28;45535;-56
2022/11/25 09:25:32;;;;;;;;;8.00;6.25;;;;;20.22;56.83;100933.41;5021604;28;46032;-55
2022/11/25 09:27:58;;;;;;;;;6.00;4.75;;;;;20.25;56.72;100949.25;5020661;28;45334;-56
2022/11/25 09:30:23;;;;;;;;;8.00;8.00;;;;;20.30;56.75;100960.56;5020737;28;45293;-55
2022/11/25 09:32:49;;;;;;;;;6.50;5.00;;;;;20.32;56.83;100964.06;5021386;28;45351;-53
2022/11/25 09:35:15;;;;;;;;;8.75;6.25;;;;;20.36;56.78;100976.31;5021708;28;45394;-55
2022/11/25 09:37:40;;;;;;;;;7.50;5.75;;;;;20.40;56.81;100979.75;5021722;28;45384;-55
2022/11/25 09:40:07;;;;;;;;;8.25;6.00;;;;;20.43;57.14;100975.28;5020389;28;45261;-54
2022/11/25 09:49:04;;;;;;;;;9.50;6.50;;;;;20.50;56.47;100984.81;5014689;28;45227;-56
2022/11/25 09:51:46;;;;;;;;;6.00;4.00;;;;;20.50;56.78;100987.47;5021926;28;45270;-55
2022/11/25 09:54:20;;;;;;;;;6.00;5.75;;;;;20.53;56.80;100997.97;5003321;28;49933;-53
2022/11/25 09:56:52;;;;;;;;;9.75;7.25;;;;;20.55;57.13;100993.50;5021126;28;46807;-55
2022/11/25 09:59:19;;;;;;;;;12.00;7.75;;;;;20.58;56.72;101005.78;4987003;28;46076;-55
2022/11/25 10:01:48;;;;;;;;;9.25;6.00;;;;;20.59;56.72;101007.56;5021479;28;45430;-53
2022/11/25 10:04:18;;;;;;;;;12.25;8.25;;;;;20.61;56.70;101018.97;5019358;28;45486;-56
2022/11/25 10:06:49;;;;;;;;;8.25;7.25;;;;;20.62;56.29;101018.06;5020419;28;45512;-54
2022/11/25 10:09:16;;;;;;;;;8.75;7.00;;;;;20.63;56.68;101027.75;5003220;28;45429;-55
2022/11/25 10:11:45;;;;;;;;;7.75;6.50;;;;;20.64;56.31;101021.53;5019519;28;45307;-56
2022/11/25 10:14:12;;;;;;;;;11.25;8.50;;;;;20.65;55.95;101019.75;5021434;28;45207;-56
2022/11/25 10:16:50;;;;;;;;;6.50;6.00;;;;;20.66;56.14;101037.41;5019931;28;46957;-55
2022/11/25 10:19:38;;;;;;;;;7.25;5.25;;;;;20.67;56.12;101040.00;5004389;28;45432;-55
2022/11/25 10:22:19;;;;;;;;;7.00;6.25;;;;;20.67;56.24;101047.09;5002868;28;45354;-55
2022/11/25 10:24:45;;;;;;;;;7.00;7.00;;;;;20.68;56.17;101046.22;5019775;28;45357;-53
2022/11/25 10:27:16;;;;;;;;;4.00;3.75;;;;;20.68;56.49;101056.81;5018558;28;66210;-55
2022/11/25 10:29:42;;;;;;;;;6.25;5.00;;;;;20.68;56.27;101052.38;5018557;28;45297;-54
2022/11/25 10:32:22;;;;;;;;;6.50;6.50;;;;;20.68;55.96;101057.69;5020647;28;53846;-56
2022/11/25 10:34:58;;;;;;;;;5.00;5.00;;;;;20.70;55.95;101060.28;5020494;28;45453;-55
2022/11/25 10:37:29;;;;;;;;;7.00;6.00;;;;;20.70;55.93;101058.50;5019493;28;45458;-55
2022/11/25 10:39:55;;;;;;;;;8.75;7.25;;;;;20.70;56.12;101055.84;5020335;28;45585;-56
2022/11/25 10:42:21;;;;;;;;;10.00;4.50;;;;;20.72;56.07;101064.63;5021216;28;45429;-56
2022/11/25 10:44:51;;;;;;;;;8.00;6.00;;;;;20.72;56.13;101059.31;5019698;28;45513;-58
2022/11/25 10:47:19;;;;;;;;;7.75;7.75;;;;;20.74;56.05;101060.16;5021365;28;46320;-54
2022/11/25 10:50:02;;;;;;;;;6.50;6.50;;;;;20.74;55.87;101054.84;5021533;28;45293;-56
2022/11/25 10:52:29;;;;;;;;;7.00;6.25;;;;;20.75;56.03;101055.72;5020594;28;45220;-55
2022/11/25 10:54:56;;;;;;;;;6.00;5.00;;;;;20.76;55.83;101061.00;5019126;28;45343;-55
2022/11/25 10:57:24;;;;;;;;;6.75;5.25;;;;;20.78;55.91;101072.44;5019843;28;46548;-56
2022/11/25 10:59:57;;;;;;;;;7.00;4.50;;;;;20.78;55.81;101071.56;5003255;28;45390;-54
2022/11/25 11:02:29;;;;;;;;;9.50;6.75;;;;;20.79;55.77;101078.59;5020453;28;45347;-55
2022/11/25 11:05:03;;;;;;;;;8.75;7.00;;;;;20.80;55.59;101083.00;5020556;28;45382;-56
2022/11/25 11:07:34;;;;;;;;;7.00;5.00;;;;;20.80;55.61;101081.22;5016870;28;46965;-56
2022/11/25 11:10:11;;;;;;;;;8.50;5.00;;;;;20.81;55.68;101085.59;5019542;28;45289;-53
2022/11/25 11:12:37;;;;;;;;;5.00;4.00;;;;;20.81;55.79;101082.94;5006628;28;45272;-53
2022/11/25 11:15:19;;;;;;;;;7.25;5.25;;;;;20.83;55.55;101083.75;5019376;28;67675;-55
2022/11/25 11:17:45;;;;;;;;;5.25;5.25;;;;;20.84;55.55;101087.28;5020334;28;46363;-55
2022/11/25 11:20:18;;;;;;;;;9.00;7.25;;;;;20.85;55.55;101089.06;5019627;28;48172;-55
2022/11/25 11:22:53;;;;;;;;;6.25;4.75;;;;;20.87;55.73;101089.88;5018886;28;45361;-56
2022/11/25 11:25:19;;;;;;;;;5.75;4.50;;;;;20.88;55.44;101089.81;5019829;28;45280;-55
2022/11/25 11:27:44;;;;;;;;;9.25;4.50;;;;;20.89;55.35;101096.88;5020301;28;46315;-55
2022/11/25 11:30:14;;;;;;;;;8.50;4.50;;;;;20.89;55.61;101109.28;5017389;28;46788;-55